Time;durP1;ratioP1;P1;durP2;ratioP2;P2;SDS_P1;SDS_P2;PMS_P1;PMS_P2;Temp;Humidity;BMP_temperature;BMP_pressure;BME280_temperature;BME280_humidity;BME280_pressure;Samples;Min_cycle;Max_cycle;Signal;HPM_P1;HPM_P2
2023/10/19 00:00:50;;;;;;;0.40;0.40;;;;;;;;;;4903312;29;20096;-85
2023/10/19 00:03:19;;;;;;;0.10;0.10;;;;;;;;;;4919400;29;20050;-85
2023/10/19 00:05:46;;;;;;;0.10;0.10;;;;;;;;;;4902773;29;20501;-85
2023/10/19 00:10:39;;;;;;;0.10;0.10;;;;;;;;;;4903223;29;20052;-84
2023/10/19 00:13:06;;;;;;;0.10;0.10;;;;;;;;;;4919007;29;20048;-85
2023/10/19 00:15:40;;;;;;;0.55;0.55;;;;;;;;;;4935934;29;20103;-85
2023/10/19 00:23:09;;;;;;;0.20;0.15;;;;;;;;;;4918620;29;20089;-85
2023/10/19 00:25:41;;;;;;;0.63;0.63;;;;;;;;;;4903217;29;20122;-85
2023/10/19 00:28:07;;;;;;;0.65;0.65;;;;;;;;;;4918971;29;20051;-86
2023/10/19 00:30:35;;;;;;;0.35;0.35;;;;;;;;;;4918476;29;20079;-86
2023/10/19 00:33:16;;;;;;;0.10;0.10;;;;;;;;;;4918497;29;20039;-86
2023/10/19 00:35:46;;;;;;;0.10;0.10;;;;;;;;;;4918426;29;20050;-86
2023/10/19 00:38:39;;;;;;;0.10;0.10;;;;;;;;;;4919077;29;20127;-86
2023/10/19 00:41:12;;;;;;;0.43;0.43;;;;;;;;;;4906194;29;20127;-86
2023/10/19 00:43:44;;;;;;;0.20;0.20;;;;;;;;;;4903140;29;20048;-86
2023/10/19 00:48:49;;;;;;;0.82;0.50;;;;;;;;;;4919433;29;19965;-86
2023/10/19 00:54:08;;;;;;;0.20;0.20;;;;;;;;;;4904614;29;20044;-85
2023/10/19 00:56:35;;;;;;;0.63;0.57;;;;;;;;;;4919076;29;20350;-86
2023/10/19 00:59:14;;;;;;;0.17;0.17;;;;;;;;;;4918181;29;20119;-84
2023/10/19 01:01:48;;;;;;;1.27;0.60;;;;;;;;;;4904504;29;20075;-85
2023/10/19 01:04:22;;;;;;;3.63;0.80;;;;;;;;;;4919208;29;20407;-85
2023/10/19 01:07:05;;;;;;;0.20;0.20;;;;;;;;;;4918113;29;20087;-85
2023/10/19 01:09:38;;;;;;;0.35;0.20;;;;;;;;;;4904291;29;20048;-85
2023/10/19 01:15:05;;;;;;;0.20;0.20;;;;;;;;;;4918092;29;20044;-85
2023/10/19 01:17:33;;;;;;;;;;;;;;;;;;4924072;29;20489;-85
2023/10/19 01:20:01;;;;;;;1.27;0.82;;;;;;;;;;4924187;29;20380;-85
2023/10/19 01:22:27;;;;;;;0.32;0.22;;;;;;;;;;4908265;29;20098;-85
2023/10/19 01:24:55;;;;;;;0.10;0.10;;;;;;;;;;4941287;29;20126;-85
2023/10/19 01:27:22;;;;;;;0.10;0.10;;;;;;;;;;4941309;29;20514;-86
2023/10/19 01:29:51;;;;;;;1.70;0.30;;;;;;;;;;4924162;29;20051;-85
2023/10/19 01:32:17;;;;;;;0.10;0.10;;;;;;;;;;4909186;29;20039;-85
2023/10/19 01:34:44;;;;;;;0.20;0.20;;;;;;;;;;4924115;29;20047;-85
2023/10/19 01:37:12;;;;;;;0.35;0.35;;;;;;;;;;4924528;29;20044;-85
2023/10/19 01:39:39;;;;;;;0.10;0.10;;;;;;;;;;4909106;29;20048;-85
2023/10/19 01:42:07;;;;;;;0.30;0.30;;;;;;;;;;4908580;29;20123;-86
2023/10/19 01:44:35;;;;;;;0.30;0.30;;;;;;;;;;4907925;29;20059;-85
2023/10/19 01:47:02;;;;;;;0.20;0.20;;;;;;;;;;4923907;29;20449;-85
2023/10/19 01:49:28;;;;;;;0.45;0.45;;;;;;;;;;4908204;29;20059;-85
2023/10/19 01:51:54;;;;;;;0.20;0.20;;;;;;;;;;4908404;29;20075;-85
2023/10/19 01:54:24;;;;;;;0.10;0.10;;;;;;;;;;4923905;29;20036;-85
2023/10/19 01:56:57;;;;;;;0.50;0.50;;;;;;;;;;4908691;29;20047;-85
2023/10/19 01:59:26;;;;;;;0.45;0.45;;;;;;;;;;4924827;29;20047;-85
2023/10/19 02:01:54;;;;;;;0.10;0.10;;;;;;;;;;4908884;29;20043;-85
2023/10/19 02:04:21;;;;;;;0.10;0.10;;;;;;;;;;4908399;29;20095;-85
2023/10/19 02:06:48;;;;;;;0.30;0.30;;;;;;;;;;4941040;29;20060;-85
2023/10/19 02:11:46;;;;;;;1.65;1.55;;;;;;;;;;4941416;29;20099;-86
2023/10/19 02:14:15;;;;;;;0.10;0.10;;;;;;;;;;4908422;29;20035;-85
2023/10/19 02:16:46;;;;;;;0.10;0.10;;;;;;;;;;4908754;29;20047;-86
2023/10/19 02:19:12;;;;;;;0.20;0.20;;;;;;;;;;4924140;29;20071;-85
2023/10/19 02:21:39;;;;;;;0.40;0.40;;;;;;;;;;4924202;29;20039;-86
2023/10/19 02:24:09;;;;;;;0.50;0.50;;;;;;;;;;4908598;29;20078;-85
2023/10/19 02:26:37;;;;;;;0.20;0.20;;;;;;;;;;4923891;29;20079;-85
2023/10/19 02:29:09;;;;;;;0.10;0.10;;;;;;;;;;4904435;29;20512;-86
2023/10/19 02:31:39;;;;;;;0.38;0.38;;;;;;;;;;4920849;29;20082;-86
2023/10/19 02:34:07;;;;;;;0.20;0.20;;;;;;;;;;4920781;29;20079;-86
2023/10/19 02:36:33;;;;;;;0.25;0.25;;;;;;;;;;4904795;29;20044;-86
2023/10/19 02:39:08;;;;;;;0.10;0.10;;;;;;;;;;4905028;29;20052;-86
2023/10/19 02:41:35;;;;;;;0.10;0.10;;;;;;;;;;4905710;29;20040;-86
2023/10/19 02:44:04;;;;;;;0.10;0.10;;;;;;;;;;4904997;29;20040;-85
2023/10/19 02:46:34;;;;;;;0.10;0.10;;;;;;;;;;4920391;29;20043;-85
2023/10/19 02:49:18;;;;;;;0.30;0.30;;;;;;;;;;4920098;29;20053;-85
2023/10/19 02:51:44;;;;;;;0.10;0.10;;;;;;;;;;4906453;29;20442;-85
2023/10/19 02:54:19;;;;;;;0.55;0.20;;;;;;;;;;4904481;29;20485;-86
2023/10/19 02:56:52;;;;;;;0.65;0.20;;;;;;;;;;4937994;29;20091;-85
2023/10/19 02:59:24;;;;;;;0.10;0.10;;;;;;;;;;4920677;29;20123;-85
2023/10/19 03:04:38;;;;;;;0.50;0.30;;;;;;;;;;4923113;29;20347;-86
2023/10/19 03:07:04;;;;;;;0.25;0.25;;;;;;;;;;4904826;29;20098;-86
2023/10/19 03:09:36;;;;;;;0.10;0.10;;;;;;;;;;4920257;29;20043;-86
2023/10/19 03:12:09;;;;;;;0.20;0.20;;;;;;;;;;4920194;29;20048;-86
2023/10/19 03:14:35;;;;;;;0.28;0.28;;;;;;;;;;4904405;29;20131;-85
2023/10/19 03:17:01;;;;;;;0.28;0.28;;;;;;;;;;4920083;29;20172;-85
2023/10/19 03:19:27;;;;;;;0.30;0.30;;;;;;;;;;4937192;29;20505;-85
2023/10/19 03:21:55;;;;;;;1.45;0.43;;;;;;;;;;4904817;29;20059;-85
2023/10/19 03:24:42;;;;;;;0.10;0.10;;;;;;;;;;4937038;29;20047;-84
2023/10/19 03:27:16;;;;;;;0.30;0.20;;;;;;;;;;4920114;29;20047;-85
2023/10/19 03:29:46;;;;;;;0.10;0.10;;;;;;;;;;4921063;29;20497;-85
2023/10/19 03:32:12;;;;;;;0.10;0.10;;;;;;;;;;4936815;29;20047;-85
2023/10/19 03:34:38;;;;;;;0.10;0.10;;;;;;;;;;4919521;29;20194;-86
2023/10/19 03:37:12;;;;;;;0.20;0.20;;;;;;;;;;4919516;29;20043;-86
2023/10/19 03:39:38;;;;;;;0.25;0.25;;;;;;;;;;4904310;29;20102;-85
2023/10/19 03:42:13;;;;;;;0.68;0.30;;;;;;;;;;4919753;29;20051;-86
2023/10/19 03:47:12;;;;;;;0.20;0.20;;;;;;;;;;4919437;29;20049;-85
2023/10/19 03:49:39;;;;;;;0.22;0.22;;;;;;;;;;4903430;29;20090;-86
2023/10/19 03:54:40;;;;;;;0.65;0.63;;;;;;;;;;4936084;29;20047;-86
2023/10/19 03:57:11;;;;;;;0.13;0.13;;;;;;;;;;4904235;29;20088;-87
2023/10/19 03:59:40;;;;;;;0.10;0.10;;;;;;;;;;4904509;29;20382;-86
2023/10/19 04:02:13;;;;;;;0.30;0.30;;;;;;;;;;4903808;29;20496;-86
2023/10/19 04:04:43;;;;;;;0.20;0.20;;;;;;;;;;4918734;29;20047;-86
2023/10/19 04:07:13;;;;;;;0.20;0.20;;;;;;;;;;4903809;29;20079;-86
2023/10/19 04:09:57;;;;;;;0.10;0.10;;;;;;;;;;4903766;29;20047;-86
2023/10/19 04:12:23;;;;;;;0.20;0.20;;;;;;;;;;4903532;29;20401;-86
2023/10/19 04:14:50;;;;;;;0.10;0.10;;;;;;;;;;4903316;29;20083;-86
2023/10/19 04:17:17;;;;;;;0.10;0.10;;;;;;;;;;4903164;29;20046;-86
2023/10/19 04:19:43;;;;;;;0.10;0.10;;;;;;;;;;4918712;29;20171;-86
2023/10/19 04:22:21;;;;;;;0.10;0.10;;;;;;;;;;4902955;29;20048;-86
2023/10/19 04:24:47;;;;;;;0.13;0.13;;;;;;;;;;4904527;29;20058;-86
2023/10/19 04:27:14;;;;;;;0.10;0.10;;;;;;;;;;4935360;29;20540;-86
2023/10/19 04:29:43;;;;;;;0.10;0.10;;;;;;;;;;4918526;29;20374;-86
2023/10/19 04:32:09;;;;;;;0.10;0.10;;;;;;;;;;4902686;29;20042;-86
2023/10/19 04:34:39;;;;;;;0.10;0.10;;;;;;;;;;4918616;29;20044;-86
2023/10/19 04:37:06;;;;;;;0.17;0.17;;;;;;;;;;4935740;29;20130;-85
2023/10/19 04:39:34;;;;;;;0.10;0.10;;;;;;;;;;4902726;29;20051;-85
2023/10/19 04:42:00;;;;;;;0.20;0.20;;;;;;;;;;4902691;29;20048;-85
2023/10/19 04:44:26;;;;;;;0.10;0.10;;;;;;;;;;4902471;29;20091;-85
2023/10/19 04:46:52;;;;;;;0.20;0.20;;;;;;;;;;4902571;29;20039;-86
2023/10/19 04:49:18;;;;;;;0.10;0.10;;;;;;;;;;4902445;29;20077;-85
2023/10/19 04:51:44;;;;;;;0.20;0.20;;;;;;;;;;4901787;29;20040;-85
2023/10/19 04:54:11;;;;;;;0.10;0.10;;;;;;;;;;4917895;29;20043;-85
2023/10/19 04:56:37;;;;;;;0.10;0.10;;;;;;;;;;4902562;29;20035;-84
2023/10/19 04:59:03;;;;;;;0.10;0.10;;;;;;;;;;4910485;29;20190;-85
2023/10/19 05:01:29;;;;;;;0.10;0.10;;;;;;;;;;4902617;29;20393;-84
2023/10/19 05:03:55;;;;;;;0.20;0.20;;;;;;;;;;4917849;29;20485;-85
2023/10/19 05:06:22;;;;;;;0.30;0.22;;;;;;;;;;4902311;29;20452;-85
2023/10/19 05:08:48;;;;;;;0.20;0.20;;;;;;;;;;4917707;29;20504;-86
2023/10/19 05:11:14;;;;;;;0.10;0.10;;;;;;;;;;4902213;29;20540;-86
2023/10/19 05:13:40;;;;;;;0.10;0.10;;;;;;;;;;4917879;29;20050;-85
2023/10/19 05:16:07;;;;;;;0.10;0.10;;;;;;;;;;4917771;29;20040;-85
2023/10/19 05:18:34;;;;;;;0.10;0.10;;;;;;;;;;4902102;29;20050;-86
2023/10/19 05:21:00;;;;;;;0.10;0.10;;;;;;;;;;4901949;29;20134;-85
2023/10/19 05:23:27;;;;;;;0.10;0.10;;;;;;;;;;4902146;29;20110;-85
2023/10/19 05:25:54;;;;;;;0.20;0.20;;;;;;;;;;4917682;29;20489;-85
2023/10/19 05:28:21;;;;;;;0.10;0.10;;;;;;;;;;4917910;29;20047;-85
2023/10/19 05:30:48;;;;;;;0.20;0.20;;;;;;;;;;4917571;29;20091;-85
2023/10/19 05:33:15;;;;;;;0.10;0.10;;;;;;;;;;4917690;29;20075;-86
2023/10/19 05:35:43;;;;;;;0.10;0.10;;;;;;;;;;4901798;29;20099;-85
2023/10/19 05:38:09;;;;;;;0.20;0.20;;;;;;;;;;4902001;29;20094;-85
2023/10/19 05:40:36;;;;;;;0.10;0.10;;;;;;;;;;4902067;29;20070;-85
2023/10/19 05:43:02;;;;;;;0.10;0.10;;;;;;;;;;4901928;29;20048;-85
2023/10/19 05:45:29;;;;;;;0.10;0.10;;;;;;;;;;4901691;29;20122;-85
2023/10/19 05:47:58;;;;;;;0.10;0.10;;;;;;;;;;4917947;29;20311;-85
2023/10/19 05:50:28;;;;;;;0.10;0.10;;;;;;;;;;4917901;29;20047;-86
2023/10/19 05:52:54;;;;;;;0.32;0.32;;;;;;;;;;4917574;29;20040;-86
2023/10/19 05:55:21;;;;;;;0.10;0.10;;;;;;;;;;4917592;29;20047;-86
2023/10/19 05:57:47;;;;;;;0.17;0.17;;;;;;;;;;4901709;29;20048;-86
2023/10/19 06:00:13;;;;;;;0.10;0.10;;;;;;;;;;4902030;29;20501;-86
2023/10/19 06:02:44;;;;;;;0.10;0.10;;;;;;;;;;4903345;29;20390;-86
2023/10/19 06:05:10;;;;;;;0.10;0.10;;;;;;;;;;4905140;29;20071;-86
2023/10/19 06:07:37;;;;;;;0.10;0.10;;;;;;;;;;4921241;29;20048;-87
2023/10/19 06:10:06;;;;;;;0.20;0.20;;;;;;;;;;4905266;29;20047;-87
2023/10/19 06:12:32;;;;;;;0.20;0.20;;;;;;;;;;4905560;29;20047;-86
2023/10/19 06:15:00;;;;;;;0.10;0.10;;;;;;;;;;4905049;29;20044;-87
2023/10/19 06:17:26;;;;;;;0.10;0.10;;;;;;;;;;4905546;29;20212;-86
2023/10/19 06:19:52;;;;;;;0.10;0.10;;;;;;;;;;4905178;29;20047;-86
2023/10/19 06:22:18;;;;;;;0.10;0.10;;;;;;;;;;4905343;29;20454;-86
2023/10/19 06:24:44;;;;;;;0.10;0.10;;;;;;;;;;4905050;29;20044;-86
2023/10/19 06:27:11;;;;;;;0.10;0.10;;;;;;;;;;4904942;29;20055;-86
2023/10/19 06:29:37;;;;;;;0.10;0.10;;;;;;;;;;4905341;29;20047;-85
2023/10/19 06:32:03;;;;;;;0.15;0.15;;;;;;;;;;4920579;29;20532;-85
2023/10/19 06:34:29;;;;;;;0.15;0.15;;;;;;;;;;4920758;29;20477;-87
2023/10/19 06:36:55;;;;;;;0.10;0.10;;;;;;;;;;4920897;29;20039;-86
2023/10/19 06:39:21;;;;;;;0.10;0.10;;;;;;;;;;4920900;29;20421;-86
2023/10/19 06:41:49;;;;;;;0.10;0.10;;;;;;;;;;4905138;29;20063;-87
2023/10/19 06:44:16;;;;;;;0.20;0.20;;;;;;;;;;4904633;29;20367;-87
2023/10/19 06:46:43;;;;;;;0.10;0.10;;;;;;;;;;4905180;29;20048;-87
2023/10/19 06:49:09;;;;;;;0.50;0.50;;;;;;;;;;4920526;29;20044;-87
2023/10/19 06:51:36;;;;;;;0.20;0.20;;;;;;;;;;4904842;29;20040;-86
2023/10/19 06:54:03;;;;;;;0.10;0.10;;;;;;;;;;4920681;29;20103;-86
2023/10/19 06:56:30;;;;;;;0.10;0.10;;;;;;;;;;4914298;29;20469;-86
2023/10/19 06:58:57;;;;;;;0.10;0.10;;;;;;;;;;4870359;29;20394;-86
2023/10/19 07:01:26;;;;;;;0.10;0.10;;;;;;;;;;4889039;29;20043;-86
2023/10/19 07:03:53;;;;;;;0.10;0.10;;;;;;;;;;4904402;29;20051;-86
2023/10/19 07:06:19;;;;;;;0.10;0.10;;;;;;;;;;4917004;29;20059;-88
2023/10/19 07:08:46;;;;;;;0.10;0.10;;;;;;;;;;4901040;29;20052;-87
2023/10/19 07:11:12;;;;;;;0.10;0.10;;;;;;;;;;4897222;29;20052;-87
2023/10/19 07:13:39;;;;;;;0.10;0.10;;;;;;;;;;4919096;29;20039;-87
2023/10/19 07:16:09;;;;;;;0.10;0.10;;;;;;;;;;4903358;29;20075;-88
2023/10/19 07:18:36;;;;;;;0.10;0.10;;;;;;;;;;4870388;29;20402;-87
2023/10/19 07:21:03;;;;;;;0.10;0.10;;;;;;;;;;4900714;29;20458;-87
2023/10/19 07:23:29;;;;;;;0.10;0.10;;;;;;;;;;4904384;29;20106;-86
2023/10/19 07:25:56;;;;;;;0.17;0.17;;;;;;;;;;4920016;29;20054;-87
2023/10/19 07:28:22;;;;;;;0.10;0.10;;;;;;;;;;4901673;29;20192;-87
2023/10/19 07:30:51;;;;;;;0.10;0.10;;;;;;;;;;4885273;29;20434;-86
2023/10/19 07:33:17;;;;;;;0.10;0.10;;;;;;;;;;4918230;29;20504;-86
2023/10/19 07:35:43;;;;;;;0.20;0.20;;;;;;;;;;4919447;29;20537;-86
2023/10/19 07:38:10;;;;;;;0.10;0.10;;;;;;;;;;4903575;29;20040;-86
2023/10/19 07:40:36;;;;;;;0.10;0.10;;;;;;;;;;4900632;29;20455;-86
2023/10/19 07:43:03;;;;;;;0.10;0.10;;;;;;;;;;4883791;29;20100;-86
2023/10/19 07:45:31;;;;;;;0.10;0.10;;;;;;;;;;4919146;29;20493;-86
2023/10/19 07:47:57;;;;;;;0.10;0.10;;;;;;;;;;4884079;29;20052;-86
2023/10/19 07:50:23;;;;;;;0.10;0.10;;;;;;;;;;4884571;29;20044;-86
2023/10/19 07:52:50;;;;;;;0.10;0.10;;;;;;;;;;4884560;29;20055;-87
2023/10/19 07:55:16;;;;;;;0.10;0.10;;;;;;;;;;4900382;29;20084;-86
2023/10/19 07:57:43;;;;;;;0.10;0.10;;;;;;;;;;4884514;29;20040;-86
2023/10/19 08:00:09;;;;;;;0.10;0.10;;;;;;;;;;4884655;29;20044;-84
2023/10/19 08:02:37;;;;;;;0.10;0.10;;;;;;;;;;4894951;29;20040;-84
2023/10/19 08:05:04;;;;;;;0.10;0.10;;;;;;;;;;4903151;29;20525;-85
2023/10/19 08:07:30;;;;;;;0.10;0.10;;;;;;;;;;4909627;29;20498;-86
2023/10/19 08:09:58;;;;;;;0.10;0.10;;;;;;;;;;4914126;29;20048;-86
2023/10/19 08:12:26;;;;;;;0.10;0.10;;;;;;;;;;4919166;29;20401;-86
2023/10/19 08:14:53;;;;;;;0.55;0.55;;;;;;;;;;4902660;29;20486;-86
2023/10/19 08:17:19;;;;;;;0.10;0.10;;;;;;;;;;4918160;29;20051;-88
2023/10/19 08:19:45;;;;;;;0.10;0.10;;;;;;;;;;4902931;29;20044;-86
2023/10/19 08:22:14;;;;;;;0.10;0.10;;;;;;;;;;4902399;29;20063;-86
2023/10/19 08:24:43;;;;;;;0.10;0.10;;;;;;;;;;4918865;29;20079;-88
2023/10/19 08:27:10;;;;;;;0.20;0.20;;;;;;;;;;4901500;29;20417;-87
2023/10/19 08:29:37;;;;;;;0.10;0.10;;;;;;;;;;4918734;29;20066;-87
2023/10/19 08:32:04;;;;;;;0.10;0.10;;;;;;;;;;4903076;29;20490;-87
2023/10/19 08:34:31;;;;;;;0.10;0.10;;;;;;;;;;4918891;29;20438;-87
2023/10/19 08:36:57;;;;;;;0.10;0.10;;;;;;;;;;4902660;29;20405;-87
2023/10/19 08:39:24;;;;;;;0.10;0.10;;;;;;;;;;4918500;29;20046;-87
2023/10/19 08:41:53;;;;;;;0.10;0.10;;;;;;;;;;4916452;29;20118;-86
2023/10/19 08:44:20;;;;;;;0.10;0.10;;;;;;;;;;4899476;29;20105;-87
2023/10/19 08:46:48;;;;;;;0.10;0.10;;;;;;;;;;4885144;29;20043;-86
2023/10/19 08:49:15;;;;;;;0.10;0.10;;;;;;;;;;4918460;29;20039;-86
2023/10/19 08:51:44;;;;;;;0.10;0.10;;;;;;;;;;4901425;29;20039;-87
2023/10/19 08:54:11;;;;;;;0.10;0.10;;;;;;;;;;4868367;29;20401;-87
2023/10/19 08:56:41;;;;;;;0.10;0.10;;;;;;;;;;4883672;29;20516;-86
2023/10/19 08:59:11;;;;;;;0.20;0.20;;;;;;;;;;4899628;29;20055;-86
2023/10/19 09:01:38;;;;;;;0.10;0.10;;;;;;;;;;4905853;29;20083;-86
2023/10/19 09:04:05;;;;;;;0.10;0.10;;;;;;;;;;4902439;29;20101;-86
2023/10/19 09:06:32;;;;;;;0.10;0.10;;;;;;;;;;4918478;29;20079;-86
2023/10/19 09:08:58;;;;;;;0.15;0.15;;;;;;;;;;4883769;29;20549;-87
2023/10/19 09:11:24;;;;;;;0.10;0.10;;;;;;;;;;4899228;29;20043;-85
2023/10/19 09:13:51;;;;;;;0.10;0.10;;;;;;;;;;4884462;29;20055;-85
2023/10/19 09:16:18;;;;;;;0.25;0.25;;;;;;;;;;4918567;29;20051;-85
2023/10/19 09:18:44;;;;;;;0.10;0.10;;;;;;;;;;4899166;29;20040;-86
2023/10/19 09:21:23;;;;;;;0.10;0.10;;;;;;;;;;4899404;29;20055;-85
2023/10/19 09:23:50;;;;;;;0.10;0.10;;;;;;;;;;4915133;29;20047;-85
2023/10/19 09:26:16;;;;;;;0.10;0.10;;;;;;;;;;4902243;29;20047;-85
2023/10/19 09:28:44;;;;;;;0.10;0.10;;;;;;;;;;4902445;29;20046;-85
2023/10/19 09:31:10;;;;;;;0.10;0.10;;;;;;;;;;4902000;29;20098;-87
2023/10/19 09:33:36;;;;;;;0.20;0.20;;;;;;;;;;4899206;29;20059;-88
2023/10/19 09:36:04;;;;;;;0.20;0.20;;;;;;;;;;4867776;29;20050;-88
2023/10/19 09:38:30;;;;;;;0.25;0.25;;;;;;;;;;4883193;29;20039;-88
2023/10/19 09:40:59;;;;;;;0.10;0.10;;;;;;;;;;4921550;29;20044;-88
2023/10/19 09:43:31;;;;;;;0.10;0.10;;;;;;;;;;4890529;29;20134;-88
2023/10/19 09:46:00;;;;;;;0.20;0.20;;;;;;;;;;4905709;29;20512;-88
2023/10/19 09:48:26;;;;;;;0.10;0.10;;;;;;;;;;4906097;29;20042;-88
2023/10/19 09:50:55;;;;;;;0.10;0.10;;;;;;;;;;4905623;29;20044;-93
2023/10/19 09:53:26;;;;;;;0.10;0.10;;;;;;;;;;4905657;29;20082;-88
2023/10/19 09:55:52;;;;;;;0.10;0.10;;;;;;;;;;4905634;29;20497;-88
2023/10/19 09:58:20;;;;;;;0.10;0.10;;;;;;;;;;4906631;29;20043;-87
2023/10/19 10:00:49;;;;;;;0.10;0.10;;;;;;;;;;4905673;29;20043;-89
2023/10/19 10:03:34;;;;;;;0.10;0.10;;;;;;;;;;4921086;29;20445;-89
2023/10/19 10:06:00;;;;;;;0.10;0.10;;;;;;;;;;4920844;29;20098;-89
2023/10/19 10:08:31;;;;;;;0.10;0.10;;;;;;;;;;4921239;29;20091;-89
2023/10/19 10:10:57;;;;;;;0.10;0.10;;;;;;;;;;4905108;29;20044;-88
2023/10/19 10:13:31;;;;;;;0.10;0.10;;;;;;;;;;4905677;29;20385;-87
2023/10/19 10:15:58;;;;;;;0.22;0.22;;;;;;;;;;4929921;29;20048;-88
2023/10/19 10:18:27;;;;;;;0.20;0.20;;;;;;;;;;4901865;29;20047;-87
2023/10/19 10:21:08;;;;;;;0.20;0.20;;;;;;;;;;4893188;29;20046;-87
2023/10/19 10:23:36;;;;;;;0.10;0.10;;;;;;;;;;4905218;29;20043;-87
2023/10/19 10:26:04;;;;;;;0.10;0.10;;;;;;;;;;4909911;29;20501;-87
2023/10/19 10:28:30;;;;;;;0.17;0.17;;;;;;;;;;4899243;29;20516;-88
2023/10/19 10:31:18;;;;;;;0.10;0.10;;;;;;;;;;4905187;29;20036;-87
2023/10/19 10:33:48;;;;;;;0.10;0.10;;;;;;;;;;4937957;29;20036;-88
2023/10/19 10:36:14;;;;;;;0.10;0.10;;;;;;;;;;4905174;29;20490;-85
2023/10/19 10:38:41;;;;;;;0.10;0.10;;;;;;;;;;4921317;29;20398;-87
2023/10/19 10:41:09;;;;;;;0.20;0.20;;;;;;;;;;4897553;29;20505;-86
2023/10/19 10:43:49;;;;;;;0.10;0.10;;;;;;;;;;4886278;29;20050;-85
2023/10/19 10:46:16;;;;;;;0.10;0.10;;;;;;;;;;4878784;29;20048;-85
2023/10/19 10:48:42;;;;;;;0.10;0.10;;;;;;;;;;4888327;29;20121;-87
2023/10/19 10:51:15;;;;;;;0.10;0.10;;;;;;;;;;4889289;29;20044;-87
2023/10/19 10:53:41;;;;;;;0.20;0.20;;;;;;;;;;4920425;29;20039;-86
2023/10/19 10:56:09;;;;;;;0.10;0.10;;;;;;;;;;4889129;29;20047;-85
2023/10/19 10:58:35;;;;;;;0.10;0.10;;;;;;;;;;4905042;29;20075;-85
2023/10/19 11:01:02;;;;;;;0.10;0.10;;;;;;;;;;4920440;29;20044;-86
2023/10/19 11:03:30;;;;;;;0.10;0.10;;;;;;;;;;4920216;29;20512;-86
2023/10/19 11:05:59;;;;;;;0.20;0.20;;;;;;;;;;4915854;29;20088;-86
2023/10/19 11:08:25;;;;;;;0.10;0.10;;;;;;;;;;4885655;29;20048;-86
2023/10/19 11:10:53;;;;;;;0.17;0.17;;;;;;;;;;4921943;29;20103;-86
2023/10/19 11:13:28;;;;;;;0.10;0.10;;;;;;;;;;4919998;29;20103;-87
2023/10/19 11:15:56;;;;;;;0.10;0.10;;;;;;;;;;4915915;29;20486;-86
2023/10/19 11:18:28;;;;;;;0.10;0.10;;;;;;;;;;4870345;29;20046;-87
2023/10/19 11:20:54;;;;;;;;;;;;;;;;;;4889846;29;20044;-88
2023/10/19 11:23:35;;;;;;;0.10;0.10;;;;;;;;;;4915480;29;19925;-87
2023/10/19 11:26:02;;;;;;;0.20;0.20;;;;;;;;;;4901851;29;20371;-87
2023/10/19 11:28:29;;;;;;;0.10;0.10;;;;;;;;;;4901713;29;20044;-87
2023/10/19 11:30:55;;;;;;;0.20;0.20;;;;;;;;;;4885801;29;20040;-87
2023/10/19 11:33:24;;;;;;;0.10;0.10;;;;;;;;;;4886149;29;20434;-87
2023/10/19 11:35:52;;;;;;;0.10;0.10;;;;;;;;;;4885961;29;20371;-87
2023/10/19 11:38:18;;;;;;;0.10;0.10;;;;;;;;;;4901138;29;20043;-88
2023/10/19 11:40:44;;;;;;;0.20;0.20;;;;;;;;;;4901238;29;20059;-88
2023/10/19 11:43:11;;;;;;;0.10;0.10;;;;;;;;;;4901297;29;20051;-87
2023/10/19 11:45:37;;;;;;;0.10;0.10;;;;;;;;;;4901135;29;20413;-87
2023/10/19 11:48:03;;;;;;;0.10;0.10;;;;;;;;;;4901234;29;20557;-88
2023/10/19 11:50:29;;;;;;;0.10;0.10;;;;;;;;;;4900716;29;20454;-88
2023/10/19 11:52:56;;;;;;;0.10;0.10;;;;;;;;;;4900868;29;20047;-88
2023/10/19 11:55:22;;;;;;;0.10;0.10;;;;;;;;;;4900704;29;20091;-89
2023/10/19 11:57:48;;;;;;;0.10;0.10;;;;;;;;;;4900732;29;20044;-88
2023/10/19 12:00:19;;;;;;;0.10;0.10;;;;;;;;;;4884808;29;20044;-89
2023/10/19 12:02:46;;;;;;;0.10;0.10;;;;;;;;;;4903052;29;20111;-89
2023/10/19 12:05:12;;;;;;;0.10;0.10;;;;;;;;;;4887682;29;20135;-88
2023/10/19 12:07:38;;;;;;;0.20;0.20;;;;;;;;;;4884709;29;20087;-87
2023/10/19 12:10:08;;;;;;;0.20;0.20;;;;;;;;;;4899907;29;20055;-87
2023/10/19 12:12:34;;;;;;;0.10;0.10;;;;;;;;;;4876226;29;20036;-87
2023/10/19 12:15:02;;;;;;;0.20;0.20;;;;;;;;;;4883838;29;20036;-88
2023/10/19 12:17:29;;;;;;;0.22;0.22;;;;;;;;;;4915501;29;20374;-87
2023/10/19 12:19:56;;;;;;;0.10;0.10;;;;;;;;;;4907839;29;20043;-87
2023/10/19 12:22:22;;;;;;;0.10;0.10;;;;;;;;;;4868517;29;20072;-88
2023/10/19 12:24:48;;;;;;;0.10;0.10;;;;;;;;;;4902856;29;20047;-88
2023/10/19 12:27:18;;;;;;;0.10;0.10;;;;;;;;;;4919626;29;20055;-88
2023/10/19 12:29:44;;;;;;;0.20;0.20;;;;;;;;;;4902982;29;20050;-87
2023/10/19 12:32:12;;;;;;;0.20;0.20;;;;;;;;;;4903211;29;20086;-88
2023/10/19 12:34:40;;;;;;;0.10;0.10;;;;;;;;;;4884485;29;20043;-88
2023/10/19 12:37:09;;;;;;;0.15;0.15;;;;;;;;;;4884037;29;20040;-87
2023/10/19 12:39:38;;;;;;;0.10;0.10;;;;;;;;;;4885262;29;20046;-87
2023/10/19 12:42:08;;;;;;;0.10;0.10;;;;;;;;;;4935896;29;20044;-88
2023/10/19 12:44:43;;;;;;;0.28;0.28;;;;;;;;;;4915985;29;20070;-87
2023/10/19 12:47:17;;;;;;;0.10;0.10;;;;;;;;;;4904055;29;20043;-86
2023/10/19 12:49:46;;;;;;;0.10;0.10;;;;;;;;;;4920163;29;20038;-87
2023/10/19 12:52:12;;;;;;;0.75;0.75;;;;;;;;;;4903065;29;20051;-86
2023/10/19 12:54:43;;;;;;;0.10;0.10;;;;;;;;;;4935272;29;20464;-87
2023/10/19 12:57:10;;;;;;;0.10;0.10;;;;;;;;;;4903112;29;20417;-87
2023/10/19 12:59:44;;;;;;;0.10;0.10;;;;;;;;;;4902456;29;20043;-87
2023/10/19 13:02:14;;;;;;;0.22;0.22;;;;;;;;;;4918392;29;20163;-86
2023/10/19 13:04:42;;;;;;;0.10;0.10;;;;;;;;;;4902797;29;20453;-87
2023/10/19 13:07:12;;;;;;;0.20;0.20;;;;;;;;;;4903213;29;20122;-87
2023/10/19 13:09:38;;;;;;;0.20;0.20;;;;;;;;;;4902752;29;20090;-87
2023/10/19 13:12:07;;;;;;;0.20;0.20;;;;;;;;;;4901582;29;20040;-87
2023/10/19 13:14:35;;;;;;;0.35;0.35;;;;;;;;;;4902025;29;20036;-88
2023/10/19 13:17:01;;;;;;;0.30;0.30;;;;;;;;;;4902302;29;20043;-87
2023/10/19 13:19:31;;;;;;;0.13;0.13;;;;;;;;;;4902242;29;20046;-87
2023/10/19 13:22:04;;;;;;;0.10;0.10;;;;;;;;;;4901894;29;20082;-85
2023/10/19 13:24:40;;;;;;;0.10;0.10;;;;;;;;;;4903073;29;20067;-87
2023/10/19 13:27:10;;;;;;;0.15;0.15;;;;;;;;;;4902440;29;20045;-87
2023/10/19 13:29:39;;;;;;;0.10;0.10;;;;;;;;;;4917613;29;20462;-90
2023/10/19 13:32:07;;;;;;;0.10;0.10;;;;;;;;;;4901908;29;20039;-87
2023/10/19 13:34:35;;;;;;;0.17;0.17;;;;;;;;;;4934765;29;20466;-86
2023/10/19 13:37:03;;;;;;;0.10;0.10;;;;;;;;;;4902162;29;20040;-87
2023/10/19 13:39:30;;;;;;;0.20;0.20;;;;;;;;;;4917874;29;20047;-87
2023/10/19 13:41:58;;;;;;;0.10;0.10;;;;;;;;;;4918024;29;20050;-87
2023/10/19 13:44:28;;;;;;;0.10;0.10;;;;;;;;;;4901980;29;20055;-86
2023/10/19 13:46:55;;;;;;;0.88;0.57;;;;;;;;;;4917561;29;20055;-87
2023/10/19 13:49:22;;;;;;;0.17;0.17;;;;;;;;;;4902105;29;20060;-86
2023/10/19 13:51:54;;;;;;;0.10;0.10;;;;;;;;;;4917816;29;20040;-86
2023/10/19 13:54:20;;;;;;;0.47;0.47;;;;;;;;;;4918140;29;20468;-86
2023/10/19 13:56:46;;;;;;;0.20;0.20;;;;;;;;;;4901974;29;20111;-87
2023/10/19 13:59:14;;;;;;;0.20;0.20;;;;;;;;;;4901859;29;20504;-86
2023/10/19 14:01:40;;;;;;;0.10;0.10;;;;;;;;;;4917608;29;20044;-85
2023/10/19 14:04:07;;;;;;;0.20;0.20;;;;;;;;;;4917787;29;20049;-85
2023/10/19 14:06:37;;;;;;;0.10;0.10;;;;;;;;;;4917424;29;20070;-86
2023/10/19 14:09:05;;;;;;;0.10;0.10;;;;;;;;;;4917802;29;20051;-87
2023/10/19 14:11:31;;;;;;;0.20;0.20;;;;;;;;;;4902049;29;20047;-88
2023/10/19 14:13:57;;;;;;;0.25;0.25;;;;;;;;;;4901999;29;20071;-88
2023/10/19 14:16:25;;;;;;;0.17;0.17;;;;;;;;;;4901699;29;20040;-88
2023/10/19 14:18:53;;;;;;;0.10;0.10;;;;;;;;;;4902019;29;20086;-87
2023/10/19 14:21:27;;;;;;;0.10;0.10;;;;;;;;;;4934650;29;20074;-87
2023/10/19 14:23:57;;;;;;;0.20;0.20;;;;;;;;;;4918647;29;20500;-87
2023/10/19 14:26:24;;;;;;;0.10;0.10;;;;;;;;;;4920784;29;20044;-86
2023/10/19 14:28:50;;;;;;;0.20;0.20;;;;;;;;;;4920766;29;20040;-87
2023/10/19 14:31:16;;;;;;;0.17;0.17;;;;;;;;;;4905034;29;20131;-87
2023/10/19 14:33:45;;;;;;;0.20;0.20;;;;;;;;;;4920978;29;20379;-87
2023/10/19 14:36:15;;;;;;;0.20;0.20;;;;;;;;;;4920967;29;20035;-87
2023/10/19 14:38:43;;;;;;;0.10;0.10;;;;;;;;;;4920563;29;20180;-88
2023/10/19 14:41:09;;;;;;;0.20;0.20;;;;;;;;;;4905262;29;20043;-87
2023/10/19 14:43:37;;;;;;;0.10;0.10;;;;;;;;;;4904784;29;20043;-87
2023/10/19 14:46:06;;;;;;;0.32;0.22;;;;;;;;;;4920349;29;20055;-87
2023/10/19 14:48:35;;;;;;;2.08;0.28;;;;;;;;;;4904835;29;20079;-86
2023/10/19 14:51:05;;;;;;;0.15;0.15;;;;;;;;;;4920420;29;20400;-88
2023/10/19 14:53:31;;;;;;;0.20;0.20;;;;;;;;;;4904593;29;20447;-87
2023/10/19 14:55:57;;;;;;;0.10;0.10;;;;;;;;;;4904646;29;20039;-87
2023/10/19 14:58:25;;;;;;;0.10;0.10;;;;;;;;;;4904495;29;20043;-88
2023/10/19 15:00:55;;;;;;;0.17;0.17;;;;;;;;;;4905017;29;20059;-87
2023/10/19 15:03:23;;;;;;;0.20;0.20;;;;;;;;;;4905193;29;20039;-88
2023/10/19 15:05:53;;;;;;;0.10;0.10;;;;;;;;;;4904516;29;20059;-87
2023/10/19 15:08:19;;;;;;;0.30;0.20;;;;;;;;;;4904580;29;20043;-87
2023/10/19 15:10:45;;;;;;;0.10;0.10;;;;;;;;;;4904488;29;20135;-87
2023/10/19 15:13:11;;;;;;;6.10;1.23;;;;;;;;;;4919848;29;20043;-89
2023/10/19 15:15:37;;;;;;;0.10;0.10;;;;;;;;;;4904219;29;20126;-88